SDG090 LFRB-LICC
Flight info
| Callsign | SDG090 |
|---|---|
| Flight time | N/A |
| Altitude | 35000 |
| Route | LUC CAR PAL |
| Aircraft | A321/M-L/C |
Departure
| Time | 2026-05-05 13:13 |
|---|---|
| Airport | Brest Bretagne airport (LFRB) |
Arrival
| Time | N/A |
|---|---|
| Airport | Catania-Fontanarossa Airport (LICC) |
| Time | Latitude | Longitude | Altitude | Speed | Heading |
|---|---|---|---|---|---|
| 2026-05-05 13:12 | 48.43367 | -4.34166 | 2936 ft | 214 kts | 141° |
| 2026-05-05 13:13 | 48.42169 | -4.32713 | 3304 ft | 230 kts | 139° |
| 2026-05-05 13:13 | 48.40894 | -4.31032 | 3610 ft | 252 kts | 137° |
| 2026-05-05 13:13 | 48.39603 | -4.29226 | 4187 ft | 260 kts | 134° |
| 2026-05-05 13:13 | 48.38294 | -4.27336 | 4848 ft | 267 kts | 133° |
| 2026-05-05 13:14 | 48.36942 | -4.25352 | 5392 ft | 277 kts | 132° |
| 2026-05-05 13:14 | 48.35560 | -4.23289 | 6083 ft | 281 kts | 132° |
| 2026-05-05 13:14 | 48.34188 | -4.21226 | 6798 ft | 284 kts | 133° |
| 2026-05-05 13:14 | 48.32783 | -4.19127 | 7425 ft | 288 kts | 132° |
| 2026-05-05 13:15 | 48.31370 | -4.17045 | 7918 ft | 284 kts | 130° |
| 2026-05-05 13:15 | 48.29944 | -4.14929 | 8364 ft | 293 kts | 130° |
| 2026-05-05 13:15 | 48.28482 | -4.12739 | 9021 ft | 297 kts | 130° |
| 2026-05-05 13:15 | 48.26978 | -4.10659 | 9487 ft | 301 kts | 135° |
| 2026-05-05 13:16 | 48.25346 | -4.08687 | 9661 ft | 302 kts | 138° |
| 2026-05-05 13:16 | 48.23662 | -4.06736 | 9691 ft | 305 kts | 139° |
| 2026-05-05 13:16 | 48.21951 | -4.04768 | 10120 ft | 312 kts | 139° |
| 2026-05-05 13:16 | 48.20259 | -4.02822 | 10713 ft | 314 kts | 139° |
| 2026-05-05 13:17 | 48.18486 | -4.00773 | 11262 ft | 321 kts | 139° |
| 2026-05-05 13:17 | 48.16757 | -3.98785 | 12202 ft | 311 kts | 139° |
| 2026-05-05 13:17 | 48.15103 | -3.96877 | 13147 ft | 300 kts | 140° |
| 2026-05-05 13:17 | 48.13488 | -3.95014 | 14016 ft | 291 kts | 140° |
| 2026-05-05 13:18 | 48.11891 | -3.93170 | 14663 ft | 290 kts | 141° |
| 2026-05-05 13:18 | 48.10303 | -3.91338 | 15227 ft | 292 kts | 141° |
| 2026-05-05 13:18 | 48.08669 | -3.89457 | 15619 ft | 302 kts | 141° |
| 2026-05-05 13:18 | 48.06949 | -3.87476 | 15708 ft | 324 kts | 141° |
| 2026-05-05 13:19 | 48.05122 | -3.85376 | 15891 ft | 340 kts | 141° |
| 2026-05-05 13:19 | 48.03200 | -3.83169 | 16142 ft | 353 kts | 141° |
| 2026-05-05 13:19 | 48.01227 | -3.80908 | 16371 ft | 365 kts | 141° |
| 2026-05-05 13:19 | 47.99172 | -3.78556 | 16595 ft | 376 kts | 141° |
| 2026-05-05 13:20 | 47.97181 | -3.76009 | 16804 ft | 386 kts | 134° |
| 2026-05-05 13:20 | 47.95412 | -3.72940 | 17007 ft | 396 kts | 124° |
| 2026-05-05 13:20 | 47.93917 | -3.69414 | 17208 ft | 405 kts | 118° |
| 2026-05-05 13:20 | 47.92523 | -3.65768 | 17428 ft | 413 kts | 118° |
| 2026-05-05 13:21 | 47.91107 | -3.62013 | 17649 ft | 415 kts | 117° |
| 2026-05-05 13:21 | 47.89691 | -3.58270 | 17666 ft | 414 kts | 117° |
| 2026-05-05 13:21 | 47.88269 | -3.54517 | 17678 ft | 414 kts | 117° |
| 2026-05-05 13:21 | 47.86853 | -3.50796 | 17683 ft | 413 kts | 117° |
| 2026-05-05 13:22 | 47.85430 | -3.47070 | 17875 ft | 418 kts | 118° |
| 2026-05-05 13:22 | 47.83997 | -3.43334 | 18349 ft | 417 kts | 118° |
| 2026-05-05 13:22 | 47.82569 | -3.39615 | 18735 ft | 418 kts | 118° |
| 2026-05-05 13:22 | 47.81103 | -3.35808 | 19067 ft | 422 kts | 118° |
| 2026-05-05 13:23 | 47.79648 | -3.32033 | 19399 ft | 424 kts | 119° |
| 2026-05-05 13:23 | 47.78218 | -3.28332 | 19758 ft | 426 kts | 119° |
| 2026-05-05 13:23 | 47.77227 | -3.25769 | 20017 ft | 428 kts | 119° |
| 2026-05-05 13:23 | 47.75127 | -3.20350 | 20568 ft | 430 kts | 119° |
| 2026-05-05 13:24 | 47.73637 | -3.16510 | 20948 ft | 431 kts | 119° |
| 2026-05-05 13:24 | 47.72158 | -3.12701 | 21313 ft | 433 kts | 119° |
| 2026-05-05 13:24 | 47.70654 | -3.08836 | 21669 ft | 434 kts | 119° |
| 2026-05-05 13:24 | 47.69132 | -3.04929 | 22020 ft | 436 kts | 119° |
| 2026-05-05 13:25 | 47.67619 | -3.01053 | 22359 ft | 437 kts | 119° |
| 2026-05-05 13:25 | 47.66087 | -2.97132 | 22689 ft | 439 kts | 119° |
| 2026-05-05 13:25 | 47.64558 | -2.93225 | 23007 ft | 439 kts | 119° |
| 2026-05-05 13:25 | 47.63034 | -2.89338 | 23297 ft | 441 kts | 119° |
| 2026-05-05 13:26 | 47.61499 | -2.85430 | 23610 ft | 443 kts | 119° |
| 2026-05-05 13:26 | 47.59935 | -2.81452 | 23918 ft | 444 kts | 119° |
| 2026-05-05 13:26 | 47.58402 | -2.77560 | 24205 ft | 445 kts | 119° |
| 2026-05-05 13:26 | 47.56841 | -2.73599 | 24488 ft | 447 kts | 119° |
| 2026-05-05 13:27 | 47.55267 | -2.69611 | 24770 ft | 448 kts | 119° |
| 2026-05-05 13:27 | 47.53693 | -2.65632 | 25055 ft | 449 kts | 119° |
| 2026-05-05 13:27 | 47.52106 | -2.61622 | 25339 ft | 451 kts | 119° |
| 2026-05-05 13:27 | 47.50526 | -2.57638 | 25675 ft | 450 kts | 119° |
| 2026-05-05 13:28 | 47.48952 | -2.53674 | 26058 ft | 448 kts | 119° |
| 2026-05-05 13:28 | 47.47383 | -2.49729 | 26449 ft | 446 kts | 118° |
| 2026-05-05 13:28 | 47.45832 | -2.45834 | 26822 ft | 444 kts | 118° |
| 2026-05-05 13:28 | 47.44255 | -2.41878 | 27202 ft | 443 kts | 118° |
| 2026-05-05 13:29 | 47.42714 | -2.38019 | 27580 ft | 441 kts | 118° |
| 2026-05-05 13:29 | 47.41159 | -2.34131 | 27981 ft | 440 kts | 119° |
| 2026-05-05 13:29 | 47.39594 | -2.30220 | 28396 ft | 438 kts | 119° |
| 2026-05-05 13:29 | 47.38065 | -2.26409 | 28799 ft | 436 kts | 119° |
| 2026-05-05 13:30 | 47.36516 | -2.22552 | 29207 ft | 434 kts | 119° |
| 2026-05-05 13:30 | 47.34991 | -2.18759 | 29612 ft | 432 kts | 119° |
| 2026-05-05 13:30 | 47.33461 | -2.14961 | 30024 ft | 431 kts | 119° |
| 2026-05-05 13:30 | 47.31942 | -2.11194 | 30456 ft | 429 kts | 119° |
| 2026-05-05 13:31 | 47.30428 | -2.07445 | 30881 ft | 427 kts | 119° |
| 2026-05-05 13:31 | 47.28905 | -2.03675 | 31280 ft | 425 kts | 119° |
| 2026-05-05 13:31 | 47.27397 | -1.99947 | 31659 ft | 423 kts | 119° |
| 2026-05-05 13:31 | 47.25902 | -1.96258 | 32018 ft | 422 kts | 120° |
| 2026-05-05 13:32 | 47.24407 | -1.92575 | 32374 ft | 421 kts | 120° |
| 2026-05-05 13:32 | 47.22904 | -1.88874 | 32655 ft | 420 kts | 120° |
| 2026-05-05 13:32 | 47.21407 | -1.85193 | 32904 ft | 420 kts | 120° |
| 2026-05-05 13:32 | 47.19907 | -1.81512 | 33127 ft | 420 kts | 120° |
| 2026-05-05 13:33 | 47.18402 | -1.77825 | 33319 ft | 422 kts | 120° |
| 2026-05-05 13:33 | 47.16909 | -1.74172 | 33475 ft | 423 kts | 121° |
| 2026-05-05 13:33 | 47.15379 | -1.70436 | 33637 ft | 424 kts | 121° |
| 2026-05-05 13:33 | 47.13858 | -1.66727 | 33796 ft | 425 kts | 121° |
| 2026-05-05 13:34 | 47.12338 | -1.63025 | 33951 ft | 427 kts | 121° |
| 2026-05-05 13:34 | 47.10815 | -1.59322 | 34089 ft | 428 kts | 121° |
| 2026-05-05 13:34 | 47.09279 | -1.55591 | 34222 ft | 429 kts | 121° |
| 2026-05-05 13:34 | 47.07734 | -1.51845 | 34350 ft | 430 kts | 121° |
| 2026-05-05 13:35 | 47.06188 | -1.48100 | 34475 ft | 431 kts | 121° |
| 2026-05-05 13:35 | 47.04631 | -1.44334 | 34550 ft | 433 kts | 121° |
| 2026-05-05 13:35 | 47.01490 | -1.36754 | 34655 ft | 438 kts | 121° |
| 2026-05-05 13:36 | 46.98326 | -1.29138 | 34733 ft | 443 kts | 122° |
| 2026-05-05 13:36 | 46.95112 | -1.21422 | 34877 ft | 444 kts | 122° |
| 2026-05-05 13:37 | 46.91895 | -1.13722 | 34873 ft | 444 kts | 122° |
| 2026-05-05 13:37 | 46.88683 | -1.06054 | 34870 ft | 445 kts | 122° |
| 2026-05-05 13:38 | 46.86608 | -1.01113 | 34870 ft | 446 kts | 122° |
| 2026-05-05 13:38 | 46.83373 | -0.93427 | 34875 ft | 446 kts | 122° |
| 2026-05-05 13:39 | 46.80116 | -0.85708 | 34877 ft | 447 kts | 122° |
| 2026-05-05 13:39 | 46.76870 | -0.78039 | 34881 ft | 447 kts | 122° |
| 2026-05-05 13:40 | 46.73602 | -0.70335 | 34883 ft | 447 kts | 122° |
| 2026-05-05 13:40 | 46.70336 | -0.62660 | 34885 ft | 447 kts | 122° |
| 2026-05-05 13:41 | 46.67063 | -0.54990 | 34885 ft | 448 kts | 122° |
| 2026-05-05 13:41 | 46.63779 | -0.47316 | 34888 ft | 448 kts | 122° |
| 2026-05-05 13:42 | 46.60479 | -0.39626 | 34892 ft | 448 kts | 122° |
| 2026-05-05 13:42 | 46.57200 | -0.32006 | 34894 ft | 448 kts | 123° |
| 2026-05-05 13:43 | 46.53904 | -0.24366 | 34895 ft | 448 kts | 123° |
| 2026-05-05 13:43 | 46.50588 | -0.16701 | 34897 ft | 448 kts | 123° |
| 2026-05-05 13:44 | 46.47278 | -0.09072 | 34900 ft | 448 kts | 123° |
| 2026-05-05 13:44 | 46.43978 | -0.01486 | 34901 ft | 448 kts | 123° |
| 2026-05-05 13:45 | 46.40653 | 0.06136 | 34883 ft | 448 kts | 123° |
| 2026-05-05 13:45 | 46.37327 | 0.13751 | 34819 ft | 450 kts | 124° |
| 2026-05-05 13:46 | 46.33967 | 0.21418 | 34817 ft | 453 kts | 124° |
| 2026-05-05 13:46 | 46.30586 | 0.29099 | 34866 ft | 455 kts | 124° |
| 2026-05-05 13:47 | 46.27203 | 0.36761 | 34873 ft | 457 kts | 125° |
| 2026-05-05 13:47 | 46.23764 | 0.44526 | 34880 ft | 458 kts | 125° |
| 2026-05-05 13:48 | 46.20351 | 0.52219 | 34887 ft | 458 kts | 125° |
| 2026-05-05 13:48 | 46.16921 | 0.59932 | 34898 ft | 458 kts | 125° |
| 2026-05-05 13:49 | 46.13483 | 0.67641 | 34906 ft | 457 kts | 126° |
| 2026-05-05 13:49 | 46.10052 | 0.75312 | 34915 ft | 457 kts | 126° |
| 2026-05-05 13:50 | 46.06604 | 0.83002 | 34923 ft | 457 kts | 126° |
| 2026-05-05 13:50 | 46.03165 | 0.90651 | 34927 ft | 456 kts | 126° |
| 2026-05-05 13:51 | 45.99712 | 0.98311 | 34930 ft | 456 kts | 126° |
| 2026-05-05 13:51 | 45.96278 | 1.05905 | 34932 ft | 456 kts | 126° |
| 2026-05-05 13:52 | 45.92806 | 1.13565 | 34926 ft | 456 kts | 126° |
| 2026-05-05 13:52 | 45.89351 | 1.21173 | 34897 ft | 459 kts | 126° |
| 2026-05-05 13:53 | 45.85852 | 1.28855 | 34902 ft | 462 kts | 127° |
| 2026-05-05 13:53 | 45.82335 | 1.36542 | 34935 ft | 463 kts | 127° |
| 2026-05-05 13:54 | 45.78815 | 1.44218 | 34944 ft | 463 kts | 127° |
| 2026-05-05 13:54 | 45.75278 | 1.51913 | 34947 ft | 463 kts | 127° |
| 2026-05-05 13:55 | 45.71758 | 1.59551 | 34947 ft | 463 kts | 127° |
| 2026-05-05 13:55 | 45.68192 | 1.67268 | 34945 ft | 463 kts | 127° |
| 2026-05-05 13:56 | 45.64669 | 1.74874 | 34944 ft | 462 kts | 127° |
| 2026-05-05 13:56 | 45.61120 | 1.82514 | 34937 ft | 462 kts | 127° |
| 2026-05-05 13:57 | 45.57570 | 1.90135 | 34863 ft | 462 kts | 127° |
| 2026-05-05 13:57 | 45.54013 | 1.97753 | 34713 ft | 462 kts | 127° |
| 2026-05-05 13:58 | 45.50451 | 2.05360 | 34566 ft | 462 kts | 127° |
| 2026-05-05 13:58 | 45.46878 | 2.12974 | 34599 ft | 463 kts | 128° |
| 2026-05-05 13:59 | 45.41528 | 2.24332 | 34747 ft | 463 kts | 128° |
| 2026-05-05 14:00 | 45.37944 | 2.31913 | 34850 ft | 463 kts | 128° |
| 2026-05-05 14:00 | 45.36750 | 2.34435 | 34878 ft | 463 kts | 128° |
| 2026-05-05 14:00 | 45.32544 | 2.43297 | 34930 ft | 464 kts | 128° |
| 2026-05-05 14:01 | 45.28937 | 2.50879 | 34943 ft | 464 kts | 129° |
| 2026-05-05 14:01 | 45.25310 | 2.58480 | 34956 ft | 465 kts | 129° |
| 2026-05-05 14:02 | 45.21706 | 2.66011 | 34957 ft | 466 kts | 130° |
| 2026-05-05 14:02 | 45.18066 | 2.73600 | 34911 ft | 466 kts | 130° |
| 2026-05-05 14:03 | 45.14423 | 2.81174 | 34864 ft | 466 kts | 130° |
| 2026-05-05 14:03 | 45.10791 | 2.88707 | 34872 ft | 466 kts | 130° |
| 2026-05-05 14:04 | 45.07126 | 2.96287 | 34911 ft | 467 kts | 130° |
| 2026-05-05 14:04 | 45.03463 | 3.03841 | 34953 ft | 467 kts | 130° |
| 2026-05-05 14:05 | 44.99780 | 3.11418 | 34965 ft | 468 kts | 130° |
| 2026-05-05 14:05 | 44.96113 | 3.18942 | 34968 ft | 468 kts | 130° |
| 2026-05-05 14:06 | 44.92412 | 3.26516 | 34968 ft | 468 kts | 131° |
| 2026-05-05 14:06 | 44.88737 | 3.34015 | 34962 ft | 468 kts | 131° |
| 2026-05-05 14:07 | 44.85035 | 3.41553 | 34950 ft | 469 kts | 131° |
| 2026-05-05 14:07 | 44.81341 | 3.49052 | 34954 ft | 469 kts | 131° |
| 2026-05-05 14:08 | 44.77625 | 3.56577 | 34961 ft | 470 kts | 131° |
| 2026-05-05 14:08 | 44.73888 | 3.64126 | 34955 ft | 470 kts | 131° |
| 2026-05-05 14:09 | 44.70159 | 3.71640 | 34941 ft | 470 kts | 132° |
| 2026-05-05 14:09 | 44.66413 | 3.79168 | 34931 ft | 470 kts | 132° |
| 2026-05-05 14:10 | 44.62658 | 3.86693 | 34934 ft | 471 kts | 133° |
| 2026-05-05 14:10 | 44.58914 | 3.94176 | 34935 ft | 472 kts | 133° |
| 2026-05-05 14:11 | 44.55143 | 4.01694 | 34930 ft | 472 kts | 133° |
| 2026-05-05 14:11 | 44.51384 | 4.09168 | 34900 ft | 472 kts | 133° |
| 2026-05-05 14:12 | 44.47583 | 4.16706 | 34865 ft | 472 kts | 133° |
| 2026-05-05 14:12 | 44.43790 | 4.24208 | 35027 ft | 473 kts | 133° |
| 2026-05-05 14:13 | 44.41905 | 4.27928 | 35164 ft | 472 kts | 133° |
| 2026-05-05 14:13 | 44.40027 | 4.31632 | 35315 ft | 472 kts | 133° |
| 2026-05-05 14:13 | 44.36210 | 4.39138 | 35301 ft | 473 kts | 133° |
| 2026-05-05 14:14 | 44.34322 | 4.42844 | 35197 ft | 473 kts | 133° |
| 2026-05-05 14:14 | 44.32418 | 4.46579 | 35066 ft | 473 kts | 133° |
| 2026-05-05 14:14 | 44.28589 | 4.54077 | 34941 ft | 473 kts | 133° |
| 2026-05-05 14:15 | 44.24784 | 4.61507 | 34919 ft | 473 kts | 133° |
| 2026-05-05 14:15 | 44.20938 | 4.69001 | 34914 ft | 472 kts | 134° |
| 2026-05-05 14:16 | 44.17138 | 4.76387 | 34916 ft | 472 kts | 134° |
| 2026-05-05 14:16 | 44.13318 | 4.83787 | 34915 ft | 471 kts | 134° |
| 2026-05-05 14:17 | 44.09500 | 4.91166 | 34905 ft | 471 kts | 134° |
| 2026-05-05 14:17 | 44.05685 | 4.98519 | 34900 ft | 471 kts | 133° |
| 2026-05-05 14:18 | 44.01852 | 5.05890 | 34903 ft | 470 kts | 133° |
| 2026-05-05 14:18 | 43.98038 | 5.13206 | 34924 ft | 470 kts | 133° |
| 2026-05-05 14:19 | 43.94213 | 5.20526 | 34955 ft | 470 kts | 133° |
| 2026-05-05 14:19 | 43.90382 | 5.27843 | 34951 ft | 471 kts | 133° |
| 2026-05-05 14:20 | 43.86509 | 5.35220 | 34957 ft | 472 kts | 133° |
| 2026-05-05 14:20 | 43.82645 | 5.42556 | 34943 ft | 473 kts | 133° |
| 2026-05-05 14:21 | 43.78793 | 5.49852 | 34920 ft | 473 kts | 133° |
| 2026-05-05 14:21 | 43.74924 | 5.57166 | 34893 ft | 472 kts | 133° |
| 2026-05-05 14:22 | 43.71062 | 5.64448 | 34870 ft | 471 kts | 133° |
| 2026-05-05 14:22 | 43.67169 | 5.71769 | 34975 ft | 470 kts | 134° |
| 2026-05-05 14:23 | 43.63314 | 5.79002 | 35156 ft | 470 kts | 134° |
| 2026-05-05 14:23 | 43.59436 | 5.86259 | 35156 ft | 470 kts | 134° |
| 2026-05-05 14:24 | 43.55573 | 5.93475 | 35027 ft | 470 kts | 133° |
| 2026-05-05 14:24 | 43.51674 | 6.00739 | 34956 ft | 470 kts | 133° |
| 2026-05-05 14:25 | 43.47790 | 6.07958 | 34943 ft | 470 kts | 133° |
| 2026-05-05 14:25 | 43.43910 | 6.15130 | 34941 ft | 469 kts | 134° |
| 2026-05-05 14:26 | 43.39652 | 6.21825 | 34941 ft | 463 kts | 142° |
| 2026-05-05 14:26 | 43.34886 | 6.27651 | 34942 ft | 456 kts | 149° |
| 2026-05-05 14:27 | 43.29728 | 6.32541 | 34942 ft | 450 kts | 156° |
| 2026-05-05 14:27 | 43.24339 | 6.36943 | 34940 ft | 450 kts | 156° |
| 2026-05-05 14:28 | 43.18960 | 6.41329 | 34932 ft | 451 kts | 156° |
| 2026-05-05 14:28 | 43.13595 | 6.45703 | 34928 ft | 452 kts | 156° |
| 2026-05-05 14:29 | 43.08183 | 6.50108 | 34928 ft | 453 kts | 156° |
| 2026-05-05 14:29 | 43.02764 | 6.54510 | 34926 ft | 453 kts | 156° |
| 2026-05-05 14:30 | 42.97366 | 6.58886 | 34923 ft | 454 kts | 156° |
| 2026-05-05 14:30 | 42.91924 | 6.63286 | 34922 ft | 454 kts | 156° |
| 2026-05-05 14:31 | 42.86504 | 6.67661 | 34923 ft | 455 kts | 157° |
| 2026-05-05 14:31 | 42.81039 | 6.72067 | 34928 ft | 455 kts | 158° |
| 2026-05-05 14:32 | 42.75602 | 6.76440 | 34936 ft | 456 kts | 158° |
| 2026-05-05 14:32 | 42.70150 | 6.80816 | 34940 ft | 456 kts | 158° |
| 2026-05-05 14:33 | 42.64692 | 6.85186 | 34941 ft | 457 kts | 158° |
| 2026-05-05 14:33 | 42.59226 | 6.89553 | 34941 ft | 457 kts | 158° |
| 2026-05-05 14:34 | 42.53748 | 6.93922 | 34941 ft | 458 kts | 158° |
| 2026-05-05 14:34 | 42.48249 | 6.98302 | 34940 ft | 458 kts | 158° |
| 2026-05-05 14:35 | 42.42727 | 7.02688 | 34940 ft | 459 kts | 158° |
| 2026-05-05 14:35 | 42.37254 | 7.07027 | 34944 ft | 460 kts | 158° |
| 2026-05-05 14:36 | 42.31731 | 7.11394 | 34950 ft | 460 kts | 158° |
| 2026-05-05 14:36 | 42.26203 | 7.15758 | 34954 ft | 461 kts | 158° |
| 2026-05-05 14:37 | 42.20678 | 7.20110 | 34956 ft | 461 kts | 158° |
| 2026-05-05 14:37 | 42.15126 | 7.24473 | 34956 ft | 462 kts | 158° |
| 2026-05-05 14:38 | 42.09555 | 7.28843 | 34957 ft | 462 kts | 158° |
| 2026-05-05 14:38 | 42.04002 | 7.33191 | 34955 ft | 463 kts | 158° |
| 2026-05-05 14:39 | 41.98458 | 7.37522 | 34952 ft | 464 kts | 158° |
| 2026-05-05 14:39 | 41.92883 | 7.41868 | 34950 ft | 464 kts | 158° |
| 2026-05-05 14:40 | 41.87262 | 7.46242 | 34949 ft | 465 kts | 158° |
| 2026-05-05 14:40 | 41.81662 | 7.50589 | 34950 ft | 466 kts | 158° |
| 2026-05-05 14:41 | 41.76054 | 7.54933 | 34960 ft | 468 kts | 157° |
| 2026-05-05 14:41 | 41.70428 | 7.59286 | 34969 ft | 468 kts | 157° |
| 2026-05-05 14:42 | 41.64790 | 7.63640 | 34972 ft | 468 kts | 157° |
| 2026-05-05 14:42 | 41.59159 | 7.67979 | 34972 ft | 468 kts | 158° |
| 2026-05-05 14:43 | 41.53509 | 7.72321 | 34973 ft | 468 kts | 158° |
| 2026-05-05 14:43 | 41.47898 | 7.76624 | 34972 ft | 468 kts | 158° |
| 2026-05-05 14:44 | 41.42246 | 7.80950 | 34970 ft | 468 kts | 158° |
| 2026-05-05 14:44 | 41.36605 | 7.85259 | 34971 ft | 468 kts | 158° |
| 2026-05-05 14:45 | 41.31000 | 7.89531 | 34972 ft | 468 kts | 158° |
| 2026-05-05 14:45 | 41.25342 | 7.93837 | 34975 ft | 468 kts | 158° |
| 2026-05-05 14:46 | 41.19714 | 7.98112 | 34978 ft | 468 kts | 158° |
| 2026-05-05 14:46 | 41.14077 | 8.02383 | 34981 ft | 467 kts | 158° |
| 2026-05-05 14:47 | 41.08435 | 8.06650 | 34986 ft | 467 kts | 158° |
| 2026-05-05 14:47 | 41.02782 | 8.10914 | 34992 ft | 468 kts | 158° |
| 2026-05-05 14:48 | 40.97144 | 8.15158 | 34991 ft | 469 kts | 157° |
| 2026-05-05 14:48 | 40.91460 | 8.19433 | 34988 ft | 469 kts | 157° |
| 2026-05-05 14:49 | 40.85809 | 8.23675 | 34989 ft | 469 kts | 157° |
| 2026-05-05 14:49 | 40.80136 | 8.27924 | 34991 ft | 469 kts | 157° |
| 2026-05-05 14:50 | 40.74442 | 8.32179 | 34994 ft | 469 kts | 157° |
| 2026-05-05 14:50 | 40.68769 | 8.36411 | 34997 ft | 469 kts | 157° |
| 2026-05-05 14:51 | 40.63089 | 8.40639 | 35000 ft | 469 kts | 157° |
| 2026-05-05 14:51 | 40.57440 | 8.44835 | 35005 ft | 469 kts | 157° |
| 2026-05-05 14:52 | 40.51729 | 8.49069 | 35012 ft | 469 kts | 157° |
| 2026-05-05 14:52 | 40.46050 | 8.53272 | 35015 ft | 469 kts | 157° |
| 2026-05-05 14:53 | 40.40387 | 8.57454 | 35011 ft | 470 kts | 157° |
| 2026-05-05 14:53 | 40.34699 | 8.61646 | 35006 ft | 470 kts | 157° |
| 2026-05-05 14:54 | 40.28989 | 8.65845 | 35002 ft | 470 kts | 158° |
| 2026-05-05 14:54 | 40.23312 | 8.70013 | 34997 ft | 469 kts | 158° |
| 2026-05-05 14:55 | 40.17609 | 8.74192 | 34985 ft | 469 kts | 158° |
| 2026-05-05 14:55 | 40.11916 | 8.78355 | 34976 ft | 470 kts | 158° |
| 2026-05-05 14:56 | 40.06207 | 8.82521 | 34970 ft | 471 kts | 158° |
| 2026-05-05 14:56 | 40.00474 | 8.86694 | 34961 ft | 476 kts | 157° |
| 2026-05-05 14:57 | 39.94687 | 8.90903 | 34953 ft | 477 kts | 157° |
| 2026-05-05 14:57 | 39.88890 | 8.95108 | 34955 ft | 478 kts | 157° |
| 2026-05-05 14:58 | 39.83065 | 8.99327 | 34970 ft | 479 kts | 157° |
| 2026-05-05 14:58 | 39.77241 | 9.03539 | 34974 ft | 480 kts | 157° |
| 2026-05-05 14:59 | 39.71401 | 9.07754 | 34957 ft | 480 kts | 157° |
| 2026-05-05 14:59 | 39.65576 | 9.11950 | 34947 ft | 481 kts | 157° |
| 2026-05-05 15:00 | 39.60691 | 9.15461 | 34948 ft | 481 kts | 157° |
| 2026-05-05 15:00 | 39.53864 | 9.20362 | 34960 ft | 481 kts | 157° |
| 2026-05-05 15:01 | 39.47996 | 9.24560 | 34982 ft | 482 kts | 157° |
| 2026-05-05 15:01 | 39.42153 | 9.28730 | 34989 ft | 482 kts | 157° |
| 2026-05-05 15:02 | 39.36360 | 9.32869 | 34982 ft | 471 kts | 157° |
| 2026-05-05 15:02 | 39.30633 | 9.36947 | 34982 ft | 470 kts | 157° |
| 2026-05-05 15:03 | 39.24884 | 9.41033 | 34989 ft | 470 kts | 157° |
| 2026-05-05 15:03 | 39.19185 | 9.45109 | 34994 ft | 472 kts | 154° |
| 2026-05-05 15:04 | 39.13934 | 9.50378 | 35003 ft | 483 kts | 140° |
| 2026-05-05 15:04 | 39.09784 | 9.57231 | 35008 ft | 493 kts | 124° |
| 2026-05-05 15:05 | 39.06980 | 9.65297 | 35015 ft | 498 kts | 112° |
| 2026-05-05 15:05 | 39.05836 | 9.69522 | 35013 ft | 498 kts | 112° |
| 2026-05-05 15:06 | 39.03593 | 9.77901 | 35013 ft | 498 kts | 112° |
| 2026-05-05 15:06 | 39.01308 | 9.86270 | 35012 ft | 497 kts | 112° |
| 2026-05-05 15:07 | 38.98981 | 9.94673 | 35011 ft | 497 kts | 112° |
| 2026-05-05 15:07 | 38.96652 | 10.03031 | 35009 ft | 497 kts | 112° |
| 2026-05-05 15:08 | 38.94328 | 10.11337 | 35007 ft | 497 kts | 112° |
| 2026-05-05 15:08 | 38.91979 | 10.19703 | 35012 ft | 497 kts | 112° |
| 2026-05-05 15:09 | 38.89849 | 10.27262 | 35012 ft | 497 kts | 112° |
| 2026-05-05 15:09 | 38.87501 | 10.35575 | 35006 ft | 497 kts | 112° |
| 2026-05-05 15:10 | 38.85136 | 10.43924 | 35005 ft | 497 kts | 112° |
| 2026-05-05 15:10 | 38.82793 | 10.52169 | 35008 ft | 496 kts | 112° |
| 2026-05-05 15:11 | 38.80502 | 10.60204 | 35008 ft | 497 kts | 112° |
| 2026-05-05 15:11 | 38.78131 | 10.68494 | 35008 ft | 496 kts | 112° |
| 2026-05-05 15:12 | 38.75803 | 10.76610 | 35009 ft | 496 kts | 112° |
| 2026-05-05 15:12 | 38.73421 | 10.84884 | 35010 ft | 496 kts | 112° |
| 2026-05-05 15:13 | 38.71037 | 10.93141 | 35013 ft | 496 kts | 112° |
| 2026-05-05 15:13 | 38.68648 | 11.01391 | 35017 ft | 496 kts | 112° |
| 2026-05-05 15:14 | 38.66245 | 11.09663 | 35018 ft | 495 kts | 112° |
| 2026-05-05 15:14 | 38.63842 | 11.17908 | 35022 ft | 501 kts | 112° |
| 2026-05-05 15:15 | 38.61385 | 11.26313 | 35031 ft | 505 kts | 112° |
| 2026-05-05 15:15 | 38.58930 | 11.34686 | 35039 ft | 505 kts | 112° |
| 2026-05-05 15:16 | 38.56460 | 11.43085 | 35042 ft | 505 kts | 112° |
| 2026-05-05 15:16 | 38.53989 | 11.51460 | 35042 ft | 504 kts | 112° |
| 2026-05-05 15:17 | 38.51512 | 11.59829 | 35043 ft | 504 kts | 112° |
| 2026-05-05 15:17 | 38.49035 | 11.68180 | 35012 ft | 503 kts | 112° |
| 2026-05-05 15:18 | 38.46556 | 11.76508 | 35007 ft | 501 kts | 113° |
| 2026-05-05 15:18 | 38.44080 | 11.84791 | 35047 ft | 500 kts | 113° |
| 2026-05-05 15:19 | 38.41612 | 11.93023 | 35065 ft | 499 kts | 112° |
| 2026-05-05 15:19 | 38.39132 | 12.01273 | 35067 ft | 499 kts | 112° |
| 2026-05-05 15:20 | 38.36649 | 12.09514 | 35068 ft | 499 kts | 112° |
| 2026-05-05 15:20 | 38.34180 | 12.17686 | 34796 ft | 486 kts | 112° |
| 2026-05-05 15:20 | 38.32972 | 12.21677 | 34232 ft | 486 kts | 112° |